Lycan, Colorado
Current Conditions -  °F | °C
As of 7:53 PM on Saturday 24 Jan 2015 (Local Time) from KLAA Reporting Station
Broken Clouds Broken Clouds  
Wind Chill: 31°   Ceiling: 9500
Heat Index: 35°   Visibility: 10mi
Dew Point: 32°   Wind: 5mph
Humidity: 89%   Direction: 260°W
Pressure: 30.01"   Gusts: NA
Location:  37.5696°N, 102.293°W
Report Text: KLAA 250253Z AUTO 26004KT 10SM BKN095 02/00 A3001 RMK AO2 SLP176 T00170000 53018
Loading
Personal Weather Stations






























Interactive Weather Map New forecast layout! Learn more

10-Day Weather Forecast

Advertisements
Track Severe Weather on mobile